Time;durP1;ratioP1;P1;durP2;ratioP2;P2;SDS_P1;SDS_P2;PMS_P1;PMS_P2;Temp;Humidity;BMP_temperature;BMP_pressure;BME280_temperature;BME280_humidity;BME280_pressure;Samples;Min_cycle;Max_cycle;Signal;HPM_P1;HPM_P2
2022/02/21 00:00:25;;;;;;;9.10;1.00;;;6.20;99.90;;;;;;5050665;28;20059;-70
2022/02/21 00:02:52;;;;;;;12.98;2.53;;;6.30;99.90;;;;;;5049630;28;20060;-70
2022/02/21 00:05:19;;;;;;;16.20;2.13;;;6.30;99.90;;;;;;5049381;28;20052;-71
2022/02/21 00:07:46;;;;;;;14.93;2.15;;;6.30;99.90;;;;;;5048120;28;20059;-70
2022/02/21 00:10:12;;;;;;;13.93;1.75;;;6.30;99.90;;;;;;5050467;28;20118;-72
2022/02/21 00:12:39;;;;;;;12.93;2.05;;;6.40;99.90;;;;;;5050134;28;20036;-71
2022/02/21 00:15:05;;;;;;;15.43;1.80;;;6.40;99.90;;;;;;5050002;28;20044;-71
2022/02/21 00:17:31;;;;;;;11.80;2.10;;;6.40;99.90;;;;;;5048931;28;20044;-72
2022/02/21 00:19:56;;;;;;;21.60;2.25;;;6.40;99.90;;;;;;5045963;28;20021;-72
2022/02/21 00:22:22;;;;;;;16.50;2.55;;;6.40;99.90;;;;;;5048765;28;20017;-71
2022/02/21 00:24:47;;;;;;;15.02;2.35;;;6.30;99.90;;;;;;5048564;28;20021;-72
2022/02/21 00:27:13;;;;;;;17.08;1.88;;;6.30;99.90;;;;;;5045939;28;20504;-72
2022/02/21 00:29:38;;;;;;;14.57;1.60;;;6.30;99.90;;;;;;5049806;28;20037;-71
2022/02/21 00:32:05;;;;;;;14.38;2.65;;;6.20;99.90;;;;;;5050088;28;20024;-71
2022/02/21 00:34:30;;;;;;;14.05;2.30;;;6.20;99.90;;;;;;5045321;28;20119;-73
2022/02/21 00:36:56;;;;;;;13.48;1.83;;;6.20;99.90;;;;;;5049235;28;20496;-73
2022/02/21 00:39:21;;;;;;;13.75;2.15;;;6.20;99.90;;;;;;5049808;28;20051;-73
2022/02/21 00:41:47;;;;;;;18.63;2.17;;;6.20;99.90;;;;;;5045909;28;20021;-72
2022/02/21 00:44:12;;;;;;;15.90;2.33;;;6.20;99.90;;;;;;5047079;28;20025;-73
2022/02/21 00:46:38;;;;;;;20.20;2.85;;;6.20;99.90;;;;;;5049612;28;20025;-73
2022/02/21 00:49:05;;;;;;;12.85;1.70;;;6.20;99.90;;;;;;5048557;28;20029;-73
2022/02/21 00:51:31;;;;;;;15.48;2.85;;;6.20;99.90;;;;;;5046996;28;20399;-72
2022/02/21 00:53:56;;;;;;;16.42;2.40;;;6.20;99.90;;;;;;5049723;28;20531;-72
2022/02/21 00:56:22;;;;;;;16.38;2.22;;;6.20;99.90;;;;;;5050026;28;20119;-73
2022/02/21 00:58:48;;;;;;;16.00;1.95;;;6.20;99.90;;;;;;5045394;28;20112;-73
2022/02/21 01:01:13;;;;;;;13.75;2.00;;;6.20;99.90;;;;;;5049554;28;20138;-72
2022/02/21 01:03:39;;;;;;;10.88;1.52;;;6.20;99.90;;;;;;5048083;28;20078;-73
2022/02/21 01:06:05;;;;;;;14.43;1.85;;;6.20;99.90;;;;;;5048727;28;20025;-72
2022/02/21 01:08:30;;;;;;;13.57;2.35;;;6.20;99.90;;;;;;5049238;28;20388;-72
2022/02/21 01:10:56;;;;;;;13.40;1.67;;;6.20;99.90;;;;;;5048913;28;20032;-72
2022/02/21 01:13:22;;;;;;;14.80;2.03;;;6.20;99.90;;;;;;5047681;28;20103;-72
2022/02/21 01:15:48;;;;;;;15.82;2.20;;;6.20;99.90;;;;;;5049193;28;20025;-72
2022/02/21 01:18:13;;;;;;;10.48;1.50;;;6.20;99.90;;;;;;5049426;28;20027;-72
2022/02/21 01:20:39;;;;;;;11.52;2.00;;;6.10;99.90;;;;;;5049002;28;20020;-72
2022/02/21 01:23:05;;;;;;;13.50;2.17;;;6.20;99.90;;;;;;5049110;28;20112;-73
2022/02/21 01:25:30;;;;;;;12.38;1.58;;;6.20;99.90;;;;;;5044914;28;20075;-72
2022/02/21 01:27:56;;;;;;;13.95;2.35;;;6.20;99.90;;;;;;5047618;28;20468;-72
2022/02/21 01:30:21;;;;;;;15.55;1.83;;;6.20;99.90;;;;;;5048610;28;20552;-72
2022/02/21 01:32:47;;;;;;;16.13;1.65;;;6.00;99.90;;;;;;5049044;28;20025;-72
2022/02/21 01:35:13;;;;;;;13.52;1.48;;;5.90;99.90;;;;;;5046041;28;20095;-72
2022/02/21 01:37:38;;;;;;;8.18;1.67;;;5.80;99.90;;;;;;5048766;28;20048;-72
2022/02/21 01:40:07;;;;;;;13.98;1.92;;;5.80;99.90;;;;;;5047282;28;20055;-72
2022/02/21 01:42:33;;;;;;;16.20;2.25;;;5.70;99.90;;;;;;5048762;28;20087;-72
2022/02/21 01:44:59;;;;;;;14.13;1.90;;;5.70;99.90;;;;;;5048455;28;20037;-72
2022/02/21 01:47:24;;;;;;;12.85;2.00;;;5.70;99.90;;;;;;5044699;28;20509;-72
2022/02/21 01:49:51;;;;;;;10.45;1.40;;;5.70;99.90;;;;;;5048359;28;20029;-72
2022/02/21 01:52:18;;;;;;;14.10;1.75;;;5.60;99.90;;;;;;5048572;28;20033;-72
2022/02/21 01:54:43;;;;;;;10.90;1.35;;;5.70;99.90;;;;;;5044630;28;20147;-72
2022/02/21 01:57:09;;;;;;;14.60;2.40;;;5.60;99.90;;;;;;5046963;28;20107;-72
2022/02/21 01:59:37;;;;;;;9.18;1.65;;;5.70;99.90;;;;;;5044659;28;20025;-72
2022/02/21 02:02:03;;;;;;;10.80;2.00;;;5.70;99.90;;;;;;5039266;28;20024;-72
2022/02/21 02:04:30;;;;;;;22.00;3.72;;;5.70;99.90;;;;;;5044443;28;20033;-72
2022/02/21 02:06:57;;;;;;;17.85;2.05;;;5.70;99.90;;;;;;5044409;28;20246;-72
2022/02/21 02:09:23;;;;;;;18.15;1.77;;;5.70;99.90;;;;;;5045708;28;20021;-72
2022/02/21 02:11:50;;;;;;;13.85;1.90;;;5.70;99.90;;;;;;5048246;28;20025;-72
2022/02/21 02:14:37;;;;;;;17.00;2.08;;;5.70;99.90;;;;;;5047936;28;20028;-72
2022/02/21 02:17:05;;;;;;;11.10;1.70;;;5.70;99.90;;;;;;5048189;28;20477;-72
2022/02/21 02:19:30;;;;;;;17.08;2.38;;;5.60;99.90;;;;;;5048284;28;20033;-72
2022/02/21 02:21:57;;;;;;;12.77;1.60;;;5.70;99.90;;;;;;5046782;28;20021;-72
2022/02/21 02:24:24;;;;;;;15.27;1.95;;;5.70;99.90;;;;;;5048557;28;20022;-72
2022/02/21 02:26:56;;;;;;;12.77;1.70;;;5.70;99.90;;;;;;5044263;28;20393;-72
2022/02/21 02:29:22;;;;;;;10.38;1.70;;;5.70;99.90;;;;;;5045518;28;20036;-72
2022/02/21 02:31:48;;;;;;;11.02;1.80;;;5.70;99.90;;;;;;5048445;28;20032;-72
2022/02/21 02:34:15;;;;;;;12.95;1.77;;;5.60;99.90;;;;;;5041544;28;20055;-72
2022/02/21 02:36:40;;;;;;;13.80;2.30;;;5.70;99.90;;;;;;5047570;28;20048;-72
2022/02/21 02:39:06;;;;;;;10.77;2.42;;;5.60;99.90;;;;;;5044586;28;20549;-71
2022/02/21 02:41:31;;;;;;;13.07;1.55;;;5.60;99.90;;;;;;5044336;28;20541;-72
2022/02/21 02:43:57;;;;;;;15.23;2.05;;;5.60;99.90;;;;;;5048577;28;20033;-71
2022/02/21 02:46:22;;;;;;;14.45;1.70;;;5.60;99.90;;;;;;5048116;28;20127;-72
2022/02/21 02:48:48;;;;;;;16.75;1.80;;;5.70;99.90;;;;;;5047583;28;20035;-72
2022/02/21 02:51:14;;;;;;;13.60;2.72;;;5.60;99.90;;;;;;5048009;28;20391;-72
2022/02/21 02:53:39;;;;;;;11.10;1.63;;;5.70;99.90;;;;;;5047766;28;20102;-72
2022/02/21 02:56:05;;;;;;;10.95;1.58;;;5.60;99.90;;;;;;5048121;28;20017;-72
2022/02/21 02:58:30;;;;;;;12.48;1.92;;;5.70;99.90;;;;;;5044540;28;20127;-72
2022/02/21 03:00:56;;;;;;;13.07;1.80;;;5.60;99.90;;;;;;5049143;28;20476;-71
2022/02/21 03:03:21;;;;;;;11.95;1.90;;;5.60;99.90;;;;;;5051394;28;20028;-72
2022/02/21 03:05:47;;;;;;;15.65;2.30;;;5.60;99.90;;;;;;5051146;28;20033;-72
2022/02/21 03:08:12;;;;;;;17.00;1.95;;;5.60;99.90;;;;;;5051040;28;20028;-71
2022/02/21 03:10:38;;;;;;;13.82;1.92;;;5.60;99.90;;;;;;5051242;28;20017;-71
2022/02/21 03:13:03;;;;;;;17.38;2.45;;;5.60;99.90;;;;;;5051557;28;20036;-71
2022/02/21 03:15:29;;;;;;;9.05;1.60;;;5.60;99.90;;;;;;5049833;28;20051;-71
2022/02/21 03:17:54;;;;;;;17.25;1.88;;;5.50;99.90;;;;;;5050003;28;20107;-71
2022/02/21 03:20:20;;;;;;;9.43;1.60;;;5.50;99.90;;;;;;5051134;28;20767;-71
2022/02/21 03:22:45;;;;;;;11.27;2.10;;;5.50;99.90;;;;;;5051190;28;20013;-71
2022/02/21 03:25:13;;;;;;;18.00;2.03;;;5.40;99.90;;;;;;5051267;28;20079;-71
2022/02/21 03:27:40;;;;;;;15.80;2.28;;;5.40;99.90;;;;;;5043046;28;20029;-71
2022/02/21 03:30:07;;;;;;;11.48;1.60;;;5.30;99.90;;;;;;5051211;28;20031;-70
2022/02/21 03:32:32;;;;;;;18.88;2.20;;;5.20;99.90;;;;;;5051335;28;20134;-71
2022/02/21 03:34:58;;;;;;;16.38;2.97;;;5.10;99.90;;;;;;5050928;28;20470;-71
2022/02/21 03:37:23;;;;;;;12.90;1.65;;;5.10;99.90;;;;;;5051120;28;20040;-71
2022/02/21 03:39:50;;;;;;;16.17;1.90;;;5.10;99.90;;;;;;5051182;28;20049;-71
2022/02/21 03:42:15;;;;;;;16.27;2.38;;;5.00;99.90;;;;;;5051114;28;20017;-71
2022/02/21 03:44:41;;;;;;;14.40;2.10;;;5.00;99.90;;;;;;5050938;28;20082;-71
2022/02/21 03:47:07;;;;;;;13.80;2.17;;;4.90;99.90;;;;;;5050890;28;20104;-71
2022/02/21 03:49:33;;;;;;;12.98;1.88;;;4.90;99.90;;;;;;5049005;28;20040;-71
2022/02/21 03:51:58;;;;;;;12.90;3.13;;;4.90;99.90;;;;;;5050710;28;20033;-71
2022/02/21 03:54:24;;;;;;;10.15;1.83;;;4.80;99.90;;;;;;5050853;28;20033;-71
2022/02/21 03:56:50;;;;;;;15.52;2.50;;;4.90;99.90;;;;;;5050861;28;20057;-71
2022/02/21 03:59:15;;;;;;;14.30;1.95;;;4.90;99.90;;;;;;5050415;28;20486;-71
2022/02/21 04:01:40;;;;;;;16.65;2.25;;;4.90;99.90;;;;;;5050697;28;20053;-70
2022/02/21 04:04:06;;;;;;;11.07;2.35;;;4.90;99.90;;;;;;5050068;28;20036;-70
2022/02/21 04:06:32;;;;;;;17.92;2.38;;;4.90;99.90;;;;;;5045534;28;20032;-70
2022/02/21 04:08:57;;;;;;;13.10;2.05;;;4.90;99.90;;;;;;5050092;28;20122;-71
2022/02/21 04:11:23;;;;;;;20.35;2.90;;;4.90;99.90;;;;;;5047131;28;20025;-70
2022/02/21 04:13:48;;;;;;;10.85;2.25;;;4.90;99.90;;;;;;5047659;28;20028;-70
2022/02/21 04:16:14;;;;;;;12.30;2.13;;;4.90;99.90;;;;;;5050448;28;20481;-70
2022/02/21 04:18:39;;;;;;;11.85;2.03;;;4.90;99.90;;;;;;5049982;28;20558;-70
2022/02/21 04:21:05;;;;;;;14.02;2.00;;;4.90;99.90;;;;;;5049999;28;20027;-71
2022/02/21 04:23:31;;;;;;;15.43;2.78;;;4.90;99.90;;;;;;5047773;28;20099;-71
2022/02/21 04:25:56;;;;;;;16.60;2.33;;;4.90;99.90;;;;;;5048771;28;20044;-70
2022/02/21 04:28:22;;;;;;;12.15;1.80;;;4.90;99.90;;;;;;5047954;28;20499;-70
2022/02/21 04:30:48;;;;;;;16.02;2.55;;;5.00;99.90;;;;;;5048183;28;20083;-70
2022/02/21 04:33:13;;;;;;;14.02;2.10;;;5.00;99.90;;;;;;5048868;28;20056;-70
2022/02/21 04:35:39;;;;;;;12.40;2.17;;;5.00;99.90;;;;;;5049810;28;20036;-70
2022/02/21 04:38:04;;;;;;;11.95;1.67;;;5.00;99.90;;;;;;5050098;28;20008;-70
2022/02/21 04:40:30;;;;;;;12.55;3.05;;;5.00;99.90;;;;;;5047118;28;20476;-70
2022/02/21 04:42:56;;;;;;;16.90;2.83;;;5.00;99.90;;;;;;5050081;28;20029;-70
2022/02/21 04:45:22;;;;;;;17.48;2.53;;;5.10;99.90;;;;;;5049772;28;20029;-71
2022/02/21 04:47:49;;;;;;;12.57;2.00;;;5.10;99.90;;;;;;5049850;28;20366;-70
2022/02/21 04:50:15;;;;;;;7.72;1.55;;;5.10;99.90;;;;;;5049147;28;20083;-70
2022/02/21 04:52:41;;;;;;;10.57;1.55;;;5.00;99.90;;;;;;5049762;28;20029;-70
2022/02/21 04:55:09;;;;;;;10.38;1.73;;;4.90;99.90;;;;;;5050111;28;20032;-70
2022/02/21 04:57:35;;;;;;;12.70;1.27;;;4.90;99.90;;;;;;5049769;28;20025;-70
2022/02/21 05:00:01;;;;;;;17.27;2.00;;;4.80;99.90;;;;;;5049647;28;20029;-71
2022/02/21 05:02:27;;;;;;;14.20;1.70;;;4.80;99.90;;;;;;5049634;28;20025;-70
2022/02/21 05:04:52;;;;;;;15.75;2.15;;;4.70;99.90;;;;;;5048970;28;20086;-71
2022/02/21 05:07:18;;;;;;;10.52;1.70;;;4.70;99.90;;;;;;5047253;28;20032;-70
2022/02/21 05:09:44;;;;;;;14.77;1.80;;;4.70;99.90;;;;;;5045085;28;20079;-71
2022/02/21 05:12:10;;;;;;;9.23;1.65;;;4.70;99.90;;;;;;5048980;28;20024;-70
2022/02/21 05:14:36;;;;;;;8.98;1.60;;;4.70;99.90;;;;;;5046608;28;20036;-70
2022/02/21 05:17:02;;;;;;;15.40;2.05;;;4.70;99.90;;;;;;5046240;28;20044;-71
2022/02/21 05:19:27;;;;;;;12.85;1.98;;;4.80;99.90;;;;;;5048980;28;20033;-71
2022/02/21 05:21:54;;;;;;;12.45;2.10;;;4.80;99.90;;;;;;5049265;28;20017;-70
2022/02/21 05:24:20;;;;;;;11.75;1.90;;;4.80;99.90;;;;;;5046642;28;20123;-70
2022/02/21 05:26:45;;;;;;;8.85;1.35;;;4.90;99.90;;;;;;5049182;28;20103;-70
2022/02/21 05:29:11;;;;;;;9.63;1.65;;;4.90;99.90;;;;;;5048948;28;20060;-70
2022/02/21 05:31:36;;;;;;;10.05;1.70;;;5.00;99.90;;;;;;5047586;28;20025;-71
2022/02/21 05:34:02;;;;;;;14.88;2.20;;;5.00;99.90;;;;;;5050779;28;20556;-71
2022/02/21 05:36:27;;;;;;;14.63;2.03;;;5.00;99.90;;;;;;5053330;28;20067;-71
2022/02/21 05:38:53;;;;;;;8.93;1.45;;;5.00;99.90;;;;;;5052566;28;20079;-70
2022/02/21 05:41:18;;;;;;;14.73;4.05;;;5.00;99.90;;;;;;5051736;28;20021;-71
2022/02/21 05:43:44;;;;;;;11.38;1.92;;;5.00;99.90;;;;;;5051723;28;20028;-71
2022/02/21 05:46:09;;;;;;;15.48;2.25;;;5.00;99.90;;;;;;5052942;28;20512;-71
2022/02/21 05:48:35;;;;;;;10.65;1.63;;;5.00;99.90;;;;;;5049816;28;20526;-71
2022/02/21 05:51:00;;;;;;;7.95;1.90;;;5.00;99.90;;;;;;5032933;28;20032;-71
2022/02/21 05:53:26;;;;;;;14.65;2.50;;;5.00;99.90;;;;;;5032903;28;20025;-70
2022/02/21 05:55:51;;;;;;;21.05;3.28;;;5.00;99.90;;;;;;5031548;28;20431;-70
2022/02/21 05:58:17;;;;;;;9.25;2.40;;;5.00;99.90;;;;;;5032745;28;20470;-71
2022/02/21 06:00:45;;;;;;;12.23;1.67;;;5.00;99.80;;;;;;5032850;28;20037;-70
2022/02/21 06:03:10;;;;;;;13.85;2.15;;;5.00;99.80;;;;;;5032656;28;20155;-71
2022/02/21 06:05:36;;;;;;;14.60;2.63;;;5.00;99.60;;;;;;5032835;28;20100;-70
2022/02/21 06:08:02;;;;;;;13.63;2.72;;;5.00;99.60;;;;;;5031347;28;20025;-71
2022/02/21 06:10:27;;;;;;;17.73;2.60;;;5.00;99.60;;;;;;5032802;28;20088;-70
2022/02/21 06:12:53;;;;;;;16.17;2.28;;;5.00;99.50;;;;;;5032646;28;20029;-71
2022/02/21 06:15:18;;;;;;;17.02;2.45;;;5.00;99.50;;;;;;5032586;28;20120;-70
2022/02/21 06:17:44;;;;;;;13.40;2.15;;;5.00;99.00;;;;;;5032508;28;20025;-70
2022/02/21 06:20:10;;;;;;;12.93;2.65;;;5.00;99.00;;;;;;5031210;28;20028;-70
2022/02/21 06:22:35;;;;;;;11.23;1.88;;;5.00;98.80;;;;;;5032669;28;20482;-70
2022/02/21 06:25:01;;;;;;;12.60;2.13;;;5.00;98.80;;;;;;5032506;28;20079;-70
2022/02/21 06:27:27;;;;;;;15.38;1.80;;;5.00;98.80;;;;;;5032606;28;20026;-70
2022/02/21 06:29:53;;;;;;;17.00;2.95;;;5.00;98.70;;;;;;5030758;28;20478;-71
2022/02/21 06:32:19;;;;;;;15.43;2.30;;;5.10;98.70;;;;;;5039003;28;20029;-70
2022/02/21 06:34:48;;;;;;;14.23;1.92;;;5.10;98.80;;;;;;5052179;28;20047;-70
2022/02/21 06:37:14;;;;;;;18.88;2.45;;;5.10;98.90;;;;;;5055539;28;20022;-70
2022/02/21 06:39:39;;;;;;;8.18;2.00;;;5.10;98.50;;;;;;5054789;28;20414;-70
2022/02/21 06:42:05;;;;;;;10.38;2.00;;;5.10;98.40;;;;;;5056203;28;20024;-70
2022/02/21 06:44:31;;;;;;;15.77;1.98;;;5.10;98.60;;;;;;5056302;28;20129;-70
2022/02/21 06:46:56;;;;;;;15.27;2.15;;;5.10;98.40;;;;;;5056090;28;20033;-70
2022/02/21 06:49:22;;;;;;;14.48;1.40;;;5.10;98.20;;;;;;5046305;28;20022;-72
2022/02/21 06:51:47;;;;;;;13.02;1.88;;;5.10;98.40;;;;;;5035948;28;20370;-71
2022/02/21 06:54:13;;;;;;;14.02;2.10;;;5.10;98.30;;;;;;5034783;28;20029;-71
2022/02/21 06:56:38;;;;;;;6.57;1.83;;;5.10;98.10;;;;;;5051478;28;20554;-71
2022/02/21 06:59:04;;;;;;;10.65;2.10;;;5.10;98.10;;;;;;5035843;28;20021;-71
2022/02/21 07:01:30;;;;;;;15.43;2.15;;;5.20;98.00;;;;;;5035932;28;20032;-71
2022/02/21 07:03:56;;;;;;;9.07;1.42;;;5.20;98.00;;;;;;5035896;28;20033;-71
2022/02/21 07:06:21;;;;;;;20.48;2.35;;;5.20;98.00;;;;;;5035808;28;20018;-71
2022/02/21 07:08:47;;;;;;;13.75;1.95;;;5.10;97.70;;;;;;5053029;28;20075;-71
2022/02/21 07:11:13;;;;;;;16.55;2.45;;;5.20;97.40;;;;;;5055592;28;20021;-71
2022/02/21 07:13:39;;;;;;;10.73;1.30;;;5.20;97.20;;;;;;5055706;28;20481;-70
2022/02/21 07:16:04;;;;;;;12.23;1.80;;;5.20;97.20;;;;;;5055362;28;20033;-70
2022/02/21 07:18:30;;;;;;;12.75;2.17;;;5.20;97.30;;;;;;5055628;28;20096;-71
2022/02/21 07:20:56;;;;;;;7.22;1.50;;;5.20;97.10;;;;;;5054251;28;20071;-71
2022/02/21 07:23:22;;;;;;;10.57;1.50;;;5.30;97.20;;;;;;5053673;28;20497;-71
2022/02/21 07:25:47;;;;;;;8.02;1.63;;;5.30;97.10;;;;;;5067418;28;20044;-71
2022/02/21 07:28:15;;;;;;;15.23;2.15;;;5.30;96.80;;;;;;5052364;28;20067;-72
2022/02/21 07:30:42;;;;;;;9.48;2.03;;;5.30;96.60;;;;;;5054016;28;20488;-71
2022/02/21 07:33:07;;;;;;;15.13;1.73;;;5.40;96.50;;;;;;5055329;28;20070;-71
2022/02/21 07:35:33;;;;;;;15.07;3.30;;;5.40;96.40;;;;;;5055306;28;20037;-71
2022/02/21 07:37:58;;;;;;;15.48;2.42;;;5.40;96.30;;;;;;5055133;28;20025;-71
2022/02/21 07:40:24;;;;;;;16.55;2.55;;;5.40;96.40;;;;;;5055014;28;20049;-71
2022/02/21 07:42:52;;;;;;;15.90;1.77;;;5.40;96.10;;;;;;5055236;28;20028;-71
2022/02/21 07:45:23;;;;;;;16.13;1.58;;;5.50;95.90;;;;;;5055011;28;20503;-71
2022/02/21 07:47:51;;;;;;;12.90;1.83;;;5.50;95.90;;;;;;5054386;28;20092;-70
2022/02/21 07:50:17;;;;;;;10.32;2.00;;;5.50;95.90;;;;;;5053510;28;20134;-70
2022/02/21 07:52:43;;;;;;;12.60;1.50;;;5.50;95.60;;;;;;5055104;28;20025;-70
2022/02/21 07:55:09;;;;;;;6.68;1.50;;;5.50;95.50;;;;;;5054884;28;20052;-70
2022/02/21 07:57:39;;;;;;;14.15;2.55;;;5.60;95.20;;;;;;5054859;28;20481;-70
2022/02/21 08:00:05;;;;;;;13.20;1.80;;;5.60;95.00;;;;;;5054641;28;20528;-71
2022/02/21 08:02:31;;;;;;;12.70;1.80;;;5.70;95.10;;;;;;5053571;28;20385;-71
2022/02/21 08:04:56;;;;;;;13.73;2.30;;;5.70;95.00;;;;;;5054774;28;20027;-70
2022/02/21 08:07:22;;;;;;;11.23;1.75;;;5.70;95.00;;;;;;5054656;28;20035;-70
2022/02/21 08:09:47;;;;;;;11.23;1.67;;;5.80;95.40;;;;;;5054697;28;20420;-72
2022/02/21 08:12:13;;;;;;;17.80;1.80;;;5.80;95.70;;;;;;5053005;28;20028;-71
2022/02/21 08:14:38;;;;;;;14.30;2.35;;;5.80;96.00;;;;;;5053176;28;20116;-73
2022/02/21 08:17:04;;;;;;;10.32;2.08;;;5.90;95.90;;;;;;5054490;28;20064;-72
2022/02/21 08:19:30;;;;;;;12.30;1.50;;;5.80;95.90;;;;;;5053643;28;20062;-73
2022/02/21 08:21:55;;;;;;;14.30;2.40;;;5.90;96.00;;;;;;5054381;28;20438;-73
2022/02/21 08:24:21;;;;;;;9.50;1.75;;;5.90;95.90;;;;;;5053033;28;20079;-72
2022/02/21 08:26:47;;;;;;;13.65;1.95;;;5.90;95.70;;;;;;5053363;28;20029;-72
2022/02/21 08:29:13;;;;;;;11.35;1.70;;;5.90;95.70;;;;;;5051719;28;20036;-71
2022/02/21 08:31:44;;;;;;;18.63;2.10;;;5.90;95.30;;;;;;5034389;28;20072;-73
2022/02/21 08:34:09;;;;;;;11.13;1.83;;;6.00;94.90;;;;;;5032909;28;20037;-73
2022/02/21 08:36:35;;;;;;;8.60;1.63;;;5.90;94.90;;;;;;5032123;28;20022;-73
2022/02/21 08:39:00;;;;;;;11.73;1.85;;;6.00;95.20;;;;;;5034068;28;20053;-73
2022/02/21 08:41:26;;;;;;;5.90;1.40;;;6.10;95.20;;;;;;5032807;28;20022;-73
2022/02/21 08:43:52;;;;;;;13.65;1.90;;;6.10;95.30;;;;;;5034081;28;20465;-73
2022/02/21 08:46:17;;;;;;;10.60;1.50;;;6.20;95.20;;;;;;5033961;28;20037;-73
2022/02/21 08:48:43;;;;;;;8.50;1.80;;;6.20;94.70;;;;;;5045191;28;20017;-72
2022/02/21 08:51:09;;;;;;;7.40;1.60;;;6.10;95.10;;;;;;5053771;28;20021;-73
2022/02/21 08:53:34;;;;;;;12.30;1.83;;;6.10;95.60;;;;;;5053857;28;20032;-73
2022/02/21 08:56:00;;;;;;;12.77;2.35;;;6.00;95.60;;;;;;5053585;28;20028;-73
2022/02/21 08:58:25;;;;;;;14.95;1.73;;;5.90;95.80;;;;;;5053754;28;20104;-73
2022/02/21 09:00:51;;;;;;;13.65;1.63;;;5.80;96.10;;;;;;5053717;28;20397;-73
2022/02/21 09:03:16;;;;;;;10.20;1.83;;;5.70;96.50;;;;;;5053589;28;20040;-73
2022/02/21 09:05:42;;;;;;;15.15;2.08;;;5.60;96.90;;;;;;5053709;28;20552;-72
2022/02/21 09:08:07;;;;;;;14.68;3.05;;;5.50;97.20;;;;;;5053775;28;20032;-73
2022/02/21 09:10:33;;;;;;;14.30;2.10;;;5.40;97.90;;;;;;5052113;28;20025;-72
2022/02/21 09:13:00;;;;;;;8.48;1.70;;;5.40;98.30;;;;;;5039083;28;20036;-72
2022/02/21 09:15:25;;;;;;;16.33;2.70;;;5.30;98.70;;;;;;5033398;28;20092;-73
2022/02/21 09:17:52;;;;;;;13.80;2.00;;;5.30;99.00;;;;;;5033537;28;20033;-72
2022/02/21 09:20:18;;;;;;;9.07;2.10;;;5.20;99.40;;;;;;5033336;28;20021;-71
2022/02/21 09:22:45;;;;;;;14.93;2.45;;;5.10;99.80;;;;;;5033507;28;20428;-71
2022/02/21 09:25:11;;;;;;;12.10;2.72;;;5.00;99.90;;;;;;5031900;28;20087;-71
2022/02/21 09:27:36;;;;;;;12.48;2.05;;;4.90;99.90;;;;;;5033457;28;20112;-71
2022/02/21 09:30:04;;;;;;;12.55;2.30;;;4.70;99.90;;;;;;5033098;28;20036;-71
2022/02/21 09:32:30;;;;;;;17.02;2.47;;;4.60;99.90;;;;;;5033228;28;20478;-70
2022/02/21 09:34:56;;;;;;;13.52;2.22;;;4.50;99.90;;;;;;5033150;28;20076;-70
2022/02/21 09:37:22;;;;;;;12.07;1.88;;;4.40;99.90;;;;;;5033076;28;20075;-70
2022/02/21 09:39:47;;;;;;;13.75;2.20;;;4.40;99.90;;;;;;5031587;28;20041;-70
2022/02/21 09:42:13;;;;;;;13.48;3.20;;;4.30;99.90;;;;;;5032858;28;20476;-70
2022/02/21 09:44:38;;;;;;;11.98;2.08;;;4.30;99.90;;;;;;5033094;28;20049;-69
2022/02/21 09:47:06;;;;;;;13.18;2.15;;;4.30;99.90;;;;;;5033009;28;20029;-70
2022/02/21 09:49:31;;;;;;;13.93;2.40;;;4.20;99.90;;;;;;5032881;28;20501;-70
2022/02/21 09:51:57;;;;;;;15.18;2.00;;;4.20;99.90;;;;;;5031546;28;20029;-70
2022/02/21 09:54:24;;;;;;;16.30;2.53;;;4.10;99.90;;;;;;5032676;28;20033;-70
2022/02/21 09:56:51;;;;;;;16.65;2.80;;;4.10;99.90;;;;;;5032938;28;20048;-70
2022/02/21 09:59:17;;;;;;;12.00;2.25;;;4.10;99.90;;;;;;5032775;28;20033;-70
2022/02/21 10:01:44;;;;;;;18.80;2.60;;;4.10;99.90;;;;;;5031405;28;20440;-70
2022/02/21 10:04:12;;;;;;;13.80;2.55;;;4.10;99.90;;;;;;5032633;28;20014;-70
2022/02/21 10:06:37;;;;;;;18.55;3.47;;;4.10;99.90;;;;;;5032722;28;20017;-70
2022/02/21 10:09:12;;;;;;;19.73;3.28;;;4.10;99.90;;;;;;5032347;28;20470;-70
2022/02/21 10:11:41;;;;;;;18.75;3.20;;;4.10;99.90;;;;;;5032654;28;20432;-70
2022/02/21 10:14:07;;;;;;;18.15;4.13;;;4.10;99.90;;;;;;5032380;28;20043;-71
2022/02/21 10:16:55;;;;;;;25.05;4.05;;;4.20;99.90;;;;;;5032725;28;20528;-70
2022/02/21 10:19:36;;;;;;;24.40;3.78;;;4.10;99.90;;;;;;5032461;28;20032;-71
2022/02/21 10:22:12;;;;;;;25.95;4.03;;;4.20;99.90;;;;;;5031143;28;20036;-70
2022/02/21 10:24:49;;;;;;;15.25;3.33;;;4.10;99.90;;;;;;5031300;28;20032;-70
2022/02/21 10:27:23;;;;;;;18.08;2.90;;;4.20;99.90;;;;;;5032516;28;20447;-69
2022/02/21 10:29:52;;;;;;;17.80;3.05;;;4.20;99.90;;;;;;5032482;28;20053;-69
2022/02/21 10:32:24;;;;;;;18.00;3.30;;;4.20;99.90;;;;;;5031292;28;20048;-70
2022/02/21 10:34:50;;;;;;;17.92;3.20;;;4.20;99.90;;;;;;5031219;28;20037;-71
2022/02/21 10:37:21;;;;;;;18.90;3.38;;;4.20;99.90;;;;;;5031052;28;20388;-70
2022/02/21 10:39:47;;;;;;;16.83;3.30;;;4.20;99.90;;;;;;5032264;28;20497;-70
2022/02/21 10:42:12;;;;;;;14.70;3.40;;;4.20;99.90;;;;;;5031992;28;20030;-70
2022/02/21 10:44:40;;;;;;;20.25;3.20;;;4.20;99.90;;;;;;5032371;28;20033;-70
2022/02/21 10:47:11;;;;;;;16.83;2.58;;;4.20;99.90;;;;;;5032284;28;20026;-71
2022/02/21 10:49:43;;;;;;;17.67;2.70;;;4.20;99.90;;;;;;5032193;28;20535;-70
2022/02/21 10:52:14;;;;;;;15.35;2.65;;;4.20;99.90;;;;;;5032073;28;20422;-71
2022/02/21 10:54:40;;;;;;;20.52;4.03;;;4.20;99.90;;;;;;5032163;28;20037;-70
2022/02/21 10:57:10;;;;;;;19.95;3.83;;;4.20;99.90;;;;;;5032218;28;20018;-71
2022/02/21 10:59:36;;;;;;;12.57;2.40;;;4.30;99.90;;;;;;5032295;28;20474;-71
2022/02/21 11:02:03;;;;;;;15.10;2.90;;;4.30;99.90;;;;;;5030667;28;20116;-71
2022/02/21 11:04:30;;;;;;;11.75;1.92;;;4.30;99.90;;;;;;5032222;28;20026;-71
2022/02/21 11:06:57;;;;;;;20.10;2.83;;;4.30;99.90;;;;;;5030867;28;20167;-71
2022/02/21 11:09:26;;;;;;;12.27;2.00;;;4.30;99.90;;;;;;5030680;28;20029;-72
2022/02/21 11:11:53;;;;;;;16.70;2.85;;;4.30;99.90;;;;;;5034014;28;20029;-72
2022/02/21 11:14:20;;;;;;;15.15;2.47;;;4.30;99.90;;;;;;5051261;28;20511;-72
2022/02/21 11:16:50;;;;;;;27.38;3.80;;;4.30;99.90;;;;;;5042438;28;20025;-72
2022/02/21 11:19:16;;;;;;;16.33;2.85;;;4.30;99.90;;;;;;5031637;28;20058;-72
2022/02/21 11:21:43;;;;;;;21.70;2.95;;;4.40;99.90;;;;;;5032737;28;20033;-72
2022/02/21 11:24:09;;;;;;;15.52;3.00;;;4.40;99.90;;;;;;5034117;28;20501;-72
2022/02/21 11:26:40;;;;;;;24.05;3.95;;;4.50;99.90;;;;;;5034452;28;20076;-72
2022/02/21 11:29:20;;;;;;;19.45;3.17;;;4.60;99.90;;;;;;5035630;28;20045;-72
2022/02/21 11:31:46;;;;;;;15.48;2.72;;;4.70;99.90;;;;;;5017894;28;20105;-72
2022/02/21 11:34:12;;;;;;;18.20;3.25;;;4.70;99.90;;;;;;5036304;28;20096;-72
2022/02/21 11:36:42;;;;;;;21.17;3.50;;;4.80;99.90;;;;;;5055277;28;20029;-72
2022/02/21 11:39:22;;;;;;;21.08;3.05;;;4.90;99.90;;;;;;5053838;28;20025;-72
2022/02/21 11:42:06;;;;;;;20.05;3.50;;;4.90;99.90;;;;;;5055308;28;20021;-72
2022/02/21 11:44:47;;;;;;;22.63;3.40;;;5.00;99.90;;;;;;5053919;28;20029;-72
2022/02/21 11:47:46;;;;;;;23.58;4.13;;;5.00;99.90;;;;;;5054277;28;20086;-71
2022/02/21 11:50:17;;;;;;;28.27;4.70;;;5.10;99.90;;;;;;5054519;28;20524;-73
2022/02/21 11:52:48;;;;;;;27.75;5.68;;;5.20;99.90;;;;;;5035132;28;20029;-73
2022/02/21 11:55:29;;;;;;;39.97;5.90;;;5.20;99.90;;;;;;5034943;28;20425;-73
2022/02/21 11:57:59;;;;;;;27.08;4.85;;;5.30;99.90;;;;;;5034571;28;20079;-73
2022/02/21 12:00:37;;;;;;;;;;;5.40;99.90;;;;;;5033480;28;20116;-72
2022/02/21 12:03:21;;;;;;;33.42;5.35;;;5.40;99.90;;;;;;5032160;28;19916;-73
2022/02/21 12:06:06;;;;;;;30.90;6.20;;;5.50;99.90;;;;;;5048561;28;20024;-73
2022/02/21 12:08:32;;;;;;;34.90;4.72;;;5.60;99.90;;;;;;5050892;28;20108;-73
2022/02/21 12:11:00;;;;;;;41.05;6.70;;;5.70;99.90;;;;;;5050581;28;20493;-72
2022/02/21 12:13:27;;;;;;;33.33;4.78;;;5.80;99.90;;;;;;5049125;28;20028;-73
2022/02/21 12:16:06;;;;;;;35.13;5.97;;;5.90;99.90;;;;;;5050189;28;20021;-73
2022/02/21 12:18:39;;;;;;;38.00;7.15;;;6.00;99.90;;;;;;5051019;28;20017;-73
2022/02/21 12:21:17;;;;;;;34.78;7.25;;;6.00;99.90;;;;;;5050552;28;20023;-73
2022/02/21 12:23:52;;;;;;;38.38;6.15;;;6.10;99.90;;;;;;5046544;28;20480;-73
2022/02/21 12:26:44;;;;;;;40.65;5.90;;;6.10;99.90;;;;;;5048679;28;20025;-73
2022/02/21 12:29:21;;;;;;;47.92;6.82;;;6.20;99.90;;;;;;5046924;28;20033;-73
2022/02/21 12:31:59;;;;;;;41.13;6.47;;;6.20;99.90;;;;;;5050482;28;20025;-73
2022/02/21 12:34:28;;;;;;;34.17;6.13;;;6.30;99.90;;;;;;5049649;28;20029;-73
2022/02/21 12:37:12;;;;;;;35.40;5.65;;;6.30;99.90;;;;;;5048701;28;20028;-73
2022/02/21 12:39:43;;;;;;;31.90;5.15;;;6.30;99.90;;;;;;5049633;28;20047;-73
2022/02/21 12:42:10;;;;;;;37.95;6.35;;;6.30;99.90;;;;;;5049876;28;20080;-73
2022/02/21 12:44:35;;;;;;;24.52;5.10;;;6.40;99.90;;;;;;5049795;28;20056;-73
2022/02/21 12:47:05;;;;;;;26.40;3.92;;;6.50;99.90;;;;;;5049976;28;20059;-73